createdAt,value
2023-03-17T00:00:51.573Z,5.10
2023-03-17T00:03:24.614Z,5.03
2023-03-17T00:05:50.887Z,5.03
2023-03-17T00:08:23.876Z,4.95
2023-03-17T00:10:50.299Z,4.97
2023-03-17T00:13:16.623Z,4.93
2023-03-17T00:15:43.084Z,4.88
2023-03-17T00:18:16.311Z,4.91
2023-03-17T00:20:42.699Z,4.86
2023-03-17T00:23:11.827Z,4.82
2023-03-17T00:25:38.036Z,4.72
2023-03-17T00:28:16.358Z,4.62
2023-03-17T00:30:42.580Z,4.64
2023-03-17T00:33:09.274Z,4.60
2023-03-17T00:35:35.496Z,4.57
2023-03-17T00:38:01.876Z,4.66
2023-03-17T00:40:29.092Z,4.59
2023-03-17T00:42:55.518Z,4.75
2023-03-17T00:45:21.988Z,4.69
2023-03-17T00:47:48.293Z,4.66
2023-03-17T00:50:15.798Z,4.65
2023-03-17T00:52:42.475Z,4.58
2023-03-17T00:55:08.840Z,4.60
2023-03-17T00:57:35.992Z,4.62
2023-03-17T01:00:02.315Z,4.60
2023-03-17T01:02:28.606Z,4.53
2023-03-17T01:05:05.539Z,4.55
2023-03-17T01:07:32.167Z,4.47
2023-03-17T01:09:58.381Z,4.52
2023-03-17T01:12:24.584Z,4.46
2023-03-17T01:14:50.811Z,4.43
2023-03-17T01:17:17.176Z,4.39
2023-03-17T01:19:43.779Z,4.31
2023-03-17T01:22:10.062Z,4.36
2023-03-17T01:24:36.269Z,4.28
2023-03-17T01:27:02.482Z,4.24
2023-03-17T01:29:28.708Z,4.21
2023-03-17T01:31:54.973Z,4.14
2023-03-17T01:34:21.182Z,4.16
2023-03-17T01:36:47.380Z,4.15
2023-03-17T01:39:13.576Z,4.18
2023-03-17T01:41:39.780Z,4.16
2023-03-17T01:44:06.010Z,4.14
2023-03-17T01:46:32.669Z,4.08
2023-03-17T01:49:01.712Z,4.18
2023-03-17T01:51:42.732Z,4.18
2023-03-17T01:54:13.937Z,4.21
2023-03-17T01:56:40.640Z,4.24
2023-03-17T01:59:07.386Z,4.23
2023-03-17T02:01:35.682Z,4.23
2023-03-17T02:04:01.915Z,4.31
2023-03-17T02:06:28.160Z,4.28
2023-03-17T02:08:54.386Z,4.29
2023-03-17T02:11:20.597Z,4.18
2023-03-17T02:13:46.816Z,4.21
2023-03-17T02:16:13.733Z,4.22
2023-03-17T02:18:39.978Z,4.26
2023-03-17T02:21:25.085Z,4.32
2023-03-17T02:23:51.324Z,4.38
2023-03-17T02:26:17.527Z,4.41
2023-03-17T02:28:43.744Z,4.43
2023-03-17T02:31:09.982Z,4.44
2023-03-17T02:33:36.223Z,4.34
2023-03-17T02:36:02.454Z,4.40
2023-03-17T02:38:28.745Z,4.51
2023-03-17T02:40:54.960Z,4.46
2023-03-17T02:43:21.162Z,4.45
2023-03-17T02:45:47.405Z,4.41
2023-03-17T02:48:13.784Z,4.43
2023-03-17T02:50:40.016Z,4.39
2023-03-17T02:53:06.216Z,4.45
2023-03-17T02:55:32.422Z,4.48
2023-03-17T02:57:58.616Z,4.48
2023-03-17T03:00:24.838Z,4.49
2023-03-17T03:02:51.063Z,4.51
2023-03-17T03:05:17.326Z,4.48
2023-03-17T03:07:43.533Z,4.45
2023-03-17T03:10:10.048Z,4.50
2023-03-17T03:12:36.275Z,4.47
2023-03-17T03:15:02.492Z,4.43
2023-03-17T03:17:28.701Z,4.40
2023-03-17T03:19:54.929Z,4.34
2023-03-17T03:22:21.144Z,4.33
2023-03-17T03:24:47.356Z,4.33
2023-03-17T03:27:13.565Z,4.34
2023-03-17T03:29:39.778Z,4.33
2023-03-17T03:32:06.148Z,4.26
2023-03-17T03:34:32.364Z,4.32
2023-03-17T03:36:58.563Z,4.31
2023-03-17T03:39:24.788Z,4.36
2023-03-17T03:41:51.008Z,4.28
2023-03-17T03:44:17.227Z,4.36
2023-03-17T03:46:43.462Z,4.34
2023-03-17T03:49:09.690Z,4.31
2023-03-17T03:51:35.898Z,4.28
2023-03-17T03:54:02.108Z,4.25
2023-03-17T03:56:28.330Z,4.36
2023-03-17T03:58:54.535Z,4.39
2023-03-17T04:01:20.754Z,4.34
2023-03-17T04:03:46.983Z,4.43
2023-03-17T04:06:13.202Z,4.38
2023-03-17T04:08:39.399Z,4.32
2023-03-17T04:11:05.613Z,4.30
2023-03-17T04:13:31.807Z,4.33
2023-03-17T04:15:58.014Z,4.37
2023-03-17T04:18:24.232Z,4.35
2023-03-17T04:20:50.458Z,4.32
2023-03-17T04:23:18.354Z,4.33
2023-03-17T04:25:44.570Z,4.38
2023-03-17T04:28:10.785Z,4.38
2023-03-17T04:30:37.010Z,4.30
2023-03-17T04:33:03.269Z,4.34
2023-03-17T04:35:29.529Z,4.25
2023-03-17T04:37:55.749Z,4.35
2023-03-17T04:40:21.975Z,4.29
2023-03-17T04:42:48.199Z,4.32
2023-03-17T04:45:14.506Z,4.30
2023-03-17T04:47:40.780Z,4.41
2023-03-17T04:50:07.068Z,4.34
2023-03-17T04:52:33.407Z,4.27
2023-03-17T04:54:59.623Z,4.30
2023-03-17T04:57:25.883Z,4.28
2023-03-17T04:59:52.095Z,4.25
2023-03-17T05:02:18.357Z,4.22
2023-03-17T05:04:44.962Z,4.29
2023-03-17T05:07:11.722Z,4.29
2023-03-17T05:09:37.943Z,4.29
2023-03-17T05:12:04.273Z,4.21
2023-03-17T05:14:30.471Z,4.21
2023-03-17T05:16:56.721Z,4.14
2023-03-17T05:19:23.002Z,4.24
2023-03-17T05:21:49.223Z,4.22
2023-03-17T05:24:15.434Z,4.22
2023-03-17T05:26:41.661Z,4.16
2023-03-17T05:29:07.894Z,4.09
2023-03-17T05:31:34.142Z,4.09
2023-03-17T05:34:00.334Z,4.19
2023-03-17T05:36:26.576Z,4.16
2023-03-17T05:38:52.787Z,4.04
2023-03-17T05:41:19.262Z,4.02
2023-03-17T05:43:45.484Z,4.09
2023-03-17T05:46:11.724Z,4.08
2023-03-17T05:48:37.957Z,4.06
2023-03-17T05:51:04.239Z,4.14
2023-03-17T05:53:30.449Z,4.21
2023-03-17T05:55:56.665Z,4.20
2023-03-17T05:58:22.887Z,4.20
2023-03-17T06:00:49.102Z,4.16
2023-03-17T06:03:15.347Z,4.18
2023-03-17T06:05:41.583Z,4.24
2023-03-17T06:08:07.795Z,4.26
2023-03-17T06:10:34.019Z,4.28
2023-03-17T06:13:01.575Z,4.33
2023-03-17T06:15:29.844Z,4.32
2023-03-17T06:17:59.236Z,4.41
2023-03-17T06:20:25.460Z,4.39
2023-03-17T06:23:03.321Z,4.42
2023-03-17T06:25:30.724Z,4.47
2023-03-17T06:27:57.039Z,4.53
2023-03-17T06:30:23.252Z,4.59
2023-03-17T06:32:49.565Z,4.61
2023-03-17T06:35:15.836Z,4.68
2023-03-17T06:37:42.055Z,4.73
2023-03-17T06:40:08.596Z,4.66
2023-03-17T06:42:34.828Z,4.66
2023-03-17T06:45:01.043Z,4.68
2023-03-17T06:47:27.258Z,4.65
2023-03-17T06:49:53.500Z,4.60
2023-03-17T06:52:19.722Z,4.65
2023-03-17T06:54:45.919Z,4.71
2023-03-17T06:57:12.156Z,4.68
2023-03-17T06:59:38.378Z,4.73
2023-03-17T07:02:04.637Z,4.73
2023-03-17T07:04:30.917Z,4.71
2023-03-17T07:06:57.131Z,4.81
2023-03-17T07:09:23.362Z,4.82
2023-03-17T07:11:49.582Z,4.87
2023-03-17T07:14:15.786Z,4.86
2023-03-17T07:16:42.045Z,4.87
2023-03-17T07:19:08.294Z,4.85
2023-03-17T07:21:34.507Z,4.90
2023-03-17T07:24:00.719Z,4.95
2023-03-17T07:26:26.939Z,5.00
2023-03-17T07:28:53.158Z,5.09
2023-03-17T07:31:19.376Z,5.15
2023-03-17T07:33:45.695Z,5.21
2023-03-17T07:36:11.971Z,5.31
2023-03-17T07:38:38.209Z,5.40
2023-03-17T07:41:04.499Z,5.49
2023-03-17T07:43:30.758Z,5.63
2023-03-17T07:45:57.000Z,5.75
2023-03-17T07:48:23.249Z,5.79
2023-03-17T07:50:49.462Z,5.81
2023-03-17T07:53:15.685Z,5.85
2023-03-17T07:55:41.895Z,5.91
2023-03-17T07:58:08.315Z,5.86
2023-03-17T08:00:35.082Z,5.90
2023-03-17T08:03:09.864Z,5.92
2023-03-17T08:05:36.739Z,5.94
2023-03-17T08:08:02.971Z,6.11
2023-03-17T08:10:29.665Z,6.06
2023-03-17T08:12:56.151Z,6.08
2023-03-17T08:15:22.359Z,6.12
2023-03-17T08:17:48.573Z,6.12
2023-03-17T08:20:14.774Z,6.26
2023-03-17T08:22:41.157Z,6.30
2023-03-17T08:25:07.548Z,6.33
2023-03-17T08:27:34.070Z,6.32
2023-03-17T08:30:00.393Z,6.38
2023-03-17T08:32:26.685Z,6.41
2023-03-17T08:34:53.538Z,6.36
2023-03-17T08:37:19.871Z,6.49
2023-03-17T08:39:46.078Z,6.49
2023-03-17T08:42:12.285Z,6.48
2023-03-17T08:44:38.490Z,6.59
2023-03-17T08:47:04.704Z,6.66
2023-03-17T08:49:31.103Z,6.76
2023-03-17T08:51:57.395Z,6.87
2023-03-17T08:54:23.602Z,6.99
2023-03-17T08:56:49.866Z,7.04
2023-03-17T08:59:17.068Z,7.17
2023-03-17T09:01:43.364Z,7.25
2023-03-17T09:04:09.603Z,7.22
2023-03-17T09:06:35.832Z,7.41
2023-03-17T09:09:02.058Z,7.51
2023-03-17T09:11:28.545Z,7.36
2023-03-17T09:13:54.771Z,7.44
2023-03-17T09:16:21.036Z,7.44
2023-03-17T09:18:47.305Z,7.41
2023-03-17T09:21:13.672Z,7.45
2023-03-17T09:23:39.984Z,7.46
2023-03-17T09:26:06.227Z,7.58
2023-03-17T09:28:32.438Z,7.65
2023-03-17T09:30:59.050Z,7.73
2023-03-17T09:33:25.300Z,7.71
2023-03-17T09:35:51.817Z,7.98
2023-03-17T09:38:18.039Z,8.07
2023-03-17T09:41:07.277Z,8.15
2023-03-17T09:43:36.753Z,8.41
2023-03-17T09:46:07.653Z,8.46
2023-03-17T09:48:43.650Z,8.38
2023-03-17T09:51:13.076Z,8.52
2023-03-17T09:53:47.544Z,8.57
2023-03-17T09:56:14.181Z,8.62
2023-03-17T09:58:40.579Z,8.64
2023-03-17T10:01:08.522Z,8.63
2023-03-17T10:03:34.755Z,9.13
2023-03-17T10:06:15.792Z,9.36
2023-03-17T10:08:47.706Z,9.39
2023-03-17T10:11:30.135Z,10.12
2023-03-17T10:13:58.115Z,10.30
2023-03-17T10:16:30.643Z,10.06
2023-03-17T10:18:58.115Z,10.20
2023-03-17T10:21:28.733Z,10.08
2023-03-17T10:23:54.988Z,10.16
2023-03-17T10:26:24.680Z,10.22
2023-03-17T10:28:50.899Z,10.10
2023-03-17T10:31:21.026Z,10.18
2023-03-17T10:33:49.139Z,10.19
2023-03-17T10:36:15.762Z,10.04
2023-03-17T10:38:48.484Z,9.90
2023-03-17T10:41:14.714Z,10.16
2023-03-17T10:43:42.207Z,10.44
2023-03-17T10:46:15.913Z,10.79
2023-03-17T10:48:42.140Z,11.32
2023-03-17T10:51:08.632Z,11.49
2023-03-17T10:53:38.270Z,11.26
2023-03-17T10:56:08.490Z,11.33
2023-03-17T10:58:47.639Z,11.62
2023-03-17T11:01:17.561Z,12.32
2023-03-17T11:03:43.844Z,12.52
2023-03-17T11:06:11.165Z,12.43
2023-03-17T11:08:47.623Z,12.32
2023-03-17T11:11:24.386Z,12.11
2023-03-17T11:13:50.613Z,11.51
2023-03-17T11:16:20.966Z,11.47
2023-03-17T11:18:47.246Z,11.29
2023-03-17T11:21:19.859Z,11.45
2023-03-17T11:23:52.954Z,11.75
2023-03-17T11:26:37.444Z,11.88
2023-03-17T11:29:22.259Z,11.88
2023-03-17T11:31:51.816Z,11.80
2023-03-17T11:34:23.998Z,11.62
2023-03-17T11:37:08.755Z,11.60
2023-03-17T11:39:34.928Z,11.87
2023-03-17T11:42:19.595Z,11.74
2023-03-17T11:44:51.630Z,11.57
2023-03-17T11:47:23.576Z,11.38
2023-03-17T11:49:52.844Z,11.30
2023-03-17T11:52:29.294Z,11.23
2023-03-17T11:55:14.208Z,11.08
2023-03-17T11:57:46.215Z,11.19
2023-03-17T12:00:18.877Z,11.09
2023-03-17T12:02:45.753Z,11.24
2023-03-17T12:05:12.962Z,11.34
2023-03-17T12:07:40.737Z,11.41
2023-03-17T12:10:06.908Z,11.18
2023-03-17T12:12:38.600Z,11.32
2023-03-17T12:15:05.333Z,11.37
2023-03-17T12:17:36.024Z,11.38
2023-03-17T12:20:12.917Z,11.53
2023-03-17T12:22:59.385Z,11.67
2023-03-17T12:25:27.798Z,11.65
2023-03-17T12:27:56.614Z,11.76
2023-03-17T12:30:43.297Z,11.93
2023-03-17T12:33:11.632Z,12.00
2023-03-17T12:35:37.896Z,11.99
2023-03-17T12:38:06.459Z,12.13
2023-03-17T12:40:34.285Z,12.11
2023-03-17T12:43:06.279Z,12.12
2023-03-17T12:45:38.844Z,11.99
2023-03-17T12:48:24.023Z,11.99
2023-03-17T12:50:57.977Z,11.98
2023-03-17T12:53:30.429Z,11.96
2023-03-17T12:55:58.634Z,11.92
2023-03-17T12:58:27.803Z,12.02
2023-03-17T13:01:00.031Z,12.01
2023-03-17T13:03:26.816Z,12.06
2023-03-17T13:06:13.300Z,12.14
2023-03-17T13:08:39.870Z,12.21
2023-03-17T13:11:16.724Z,12.05
2023-03-17T13:13:47.327Z,12.24
2023-03-17T13:16:29.994Z,12.30
2023-03-17T13:19:14.547Z,12.17
2023-03-17T13:21:44.328Z,12.24
2023-03-17T13:24:16.509Z,12.11
2023-03-17T13:26:56.085Z,12.14
2023-03-17T13:29:22.992Z,12.10
2023-03-17T13:31:49.262Z,12.12
2023-03-17T13:34:16.506Z,11.96
2023-03-17T13:36:54.929Z,11.99
2023-03-17T13:39:39.828Z,12.03
2023-03-17T13:42:17.642Z,12.03
2023-03-17T13:44:44.484Z,11.93
2023-03-17T13:47:16.585Z,12.02
2023-03-17T13:49:45.915Z,11.97
2023-03-17T13:52:13.689Z,12.09
2023-03-17T13:54:49.991Z,12.07
2023-03-17T13:57:22.200Z,11.95
2023-03-17T13:59:59.695Z,12.03
2023-03-17T14:02:26.352Z,11.97
2023-03-17T14:05:03.123Z,12.00
2023-03-17T14:07:30.967Z,11.99
2023-03-17T14:09:58.207Z,12.13
2023-03-17T14:12:36.599Z,12.10
2023-03-17T14:15:03.785Z,12.17
2023-03-17T14:17:32.102Z,12.17
2023-03-17T14:20:02.032Z,12.19
2023-03-17T14:22:28.251Z,12.17
2023-03-17T14:24:55.200Z,12.13
2023-03-17T14:27:22.242Z,12.30
2023-03-17T14:29:48.474Z,12.42
2023-03-17T14:32:15.350Z,12.46
2023-03-17T14:34:42.240Z,12.43
2023-03-17T14:37:09.416Z,12.49
2023-03-17T14:39:35.618Z,12.60
2023-03-17T14:42:03.019Z,12.46
2023-03-17T14:44:38.917Z,12.28
2023-03-17T14:47:05.920Z,12.21
2023-03-17T14:49:32.178Z,12.08
2023-03-17T14:51:58.402Z,12.07
2023-03-17T14:54:25.773Z,12.04
2023-03-17T14:56:52.629Z,11.99
2023-03-17T14:59:23.505Z,11.92
2023-03-17T15:01:52.808Z,11.97
2023-03-17T15:04:25.935Z,12.00
2023-03-17T15:06:53.179Z,12.01
2023-03-17T15:09:20.565Z,12.00
2023-03-17T15:11:46.779Z,12.00
2023-03-17T15:14:29.280Z,12.03
2023-03-17T15:16:55.522Z,12.08
2023-03-17T15:19:21.830Z,12.13
2023-03-17T15:21:48.037Z,12.35
2023-03-17T15:24:34.221Z,12.49
2023-03-17T15:27:12.880Z,12.53
2023-03-17T15:29:39.102Z,12.54
2023-03-17T15:32:14.487Z,12.56
2023-03-17T15:34:40.733Z,12.53
2023-03-17T15:37:13.476Z,12.59
2023-03-17T15:39:39.693Z,12.54
2023-03-17T15:42:05.902Z,12.50
2023-03-17T15:44:32.130Z,12.46
2023-03-17T15:46:58.355Z,12.47
2023-03-17T15:49:26.864Z,12.48
2023-03-17T15:51:53.230Z,12.45
2023-03-17T15:54:19.426Z,12.35
2023-03-17T15:56:45.653Z,12.35
2023-03-17T15:59:11.864Z,12.23
2023-03-17T16:01:38.122Z,12.09
2023-03-17T16:04:04.861Z,12.00
2023-03-17T16:06:31.112Z,11.92
2023-03-17T16:08:57.312Z,11.86
2023-03-17T16:11:23.514Z,11.78
2023-03-17T16:13:49.710Z,11.76
2023-03-17T16:16:17.080Z,11.66
2023-03-17T16:18:43.296Z,11.59
2023-03-17T16:21:09.516Z,11.58
2023-03-17T16:23:37.351Z,11.53
2023-03-17T16:26:14.398Z,11.47
2023-03-17T16:28:41.581Z,11.37
2023-03-17T16:31:17.864Z,11.27
2023-03-17T16:33:44.135Z,11.19
2023-03-17T16:36:13.120Z,11.22
2023-03-17T16:38:39.342Z,11.20
2023-03-17T16:41:09.335Z,11.18
2023-03-17T16:43:35.994Z,11.20
2023-03-17T16:46:02.235Z,11.17
2023-03-17T16:48:28.550Z,11.03
2023-03-17T16:50:55.043Z,10.98
2023-03-17T16:53:21.275Z,10.94
2023-03-17T16:55:47.482Z,10.93
2023-03-17T16:58:20.747Z,10.90
2023-03-17T17:00:47.111Z,10.79
2023-03-17T17:03:13.483Z,10.75
2023-03-17T17:05:40.035Z,10.74
2023-03-17T17:08:06.404Z,10.70
2023-03-17T17:10:32.978Z,10.70
2023-03-17T17:12:59.382Z,10.77
2023-03-17T17:15:25.588Z,10.79
2023-03-17T17:17:53.072Z,10.70
2023-03-17T17:20:20.755Z,10.67
2023-03-17T17:22:47.165Z,10.62
2023-03-17T17:25:13.366Z,10.64
2023-03-17T17:27:40.162Z,10.59
2023-03-17T17:30:06.650Z,10.65
2023-03-17T17:32:32.885Z,10.66
2023-03-17T17:34:59.152Z,10.63
2023-03-17T17:37:25.365Z,10.66
2023-03-17T17:39:51.582Z,10.61
2023-03-17T17:42:18.005Z,10.56
2023-03-17T17:44:44.238Z,10.58
2023-03-17T17:47:10.832Z,10.55
2023-03-17T17:49:37.043Z,10.60
2023-03-17T17:52:03.479Z,10.63
2023-03-17T17:54:29.675Z,10.64
2023-03-17T17:56:55.867Z,10.62
2023-03-17T17:59:22.118Z,10.57
2023-03-17T18:01:48.344Z,10.52
2023-03-17T18:04:14.595Z,10.47
2023-03-17T18:06:40.861Z,10.65
2023-03-17T18:09:07.128Z,10.61
2023-03-17T18:11:33.347Z,10.66
2023-03-17T18:13:59.565Z,10.56
2023-03-17T18:16:25.823Z,10.58
2023-03-17T18:18:52.079Z,10.48
2023-03-17T18:21:18.291Z,10.39
2023-03-17T18:23:47.682Z,10.38
2023-03-17T18:26:17.068Z,10.32
2023-03-17T18:28:43.295Z,10.21
2023-03-17T18:31:10.173Z,10.22
2023-03-17T18:33:36.503Z,10.16
2023-03-17T18:36:02.859Z,10.11
2023-03-17T18:38:29.115Z,10.08
2023-03-17T18:40:55.352Z,10.12
2023-03-17T18:43:21.582Z,10.09
2023-03-17T18:45:47.810Z,10.05
2023-03-17T18:48:14.047Z,10.04
2023-03-17T18:50:40.252Z,10.04
2023-03-17T18:53:06.495Z,9.98
2023-03-17T18:55:32.708Z,9.93
2023-03-17T18:57:58.919Z,10.02
2023-03-17T19:00:25.145Z,9.97
2023-03-17T19:02:51.394Z,9.94
2023-03-17T19:05:17.654Z,9.99
2023-03-17T19:07:43.876Z,9.97
2023-03-17T19:10:10.432Z,9.96
2023-03-17T19:12:36.654Z,9.93
2023-03-17T19:15:02.908Z,10.04
2023-03-17T19:17:29.117Z,10.09
2023-03-17T19:19:55.328Z,10.08
2023-03-17T19:22:21.568Z,10.06
2023-03-17T19:24:47.795Z,10.06
2023-03-17T19:27:14.000Z,10.02
2023-03-17T19:29:40.217Z,9.96
2023-03-17T19:32:06.435Z,9.94
2023-03-17T19:34:32.646Z,9.97
2023-03-17T19:36:58.926Z,9.93
2023-03-17T19:39:25.164Z,9.87
2023-03-17T19:41:51.372Z,9.84
2023-03-17T19:44:17.587Z,9.80
2023-03-17T19:46:43.795Z,9.76
2023-03-17T19:49:11.089Z,9.80
2023-03-17T19:51:37.320Z,9.90
2023-03-17T19:54:03.535Z,10.01
2023-03-17T19:56:29.828Z,10.07
2023-03-17T19:58:56.045Z,10.05
2023-03-17T20:01:22.270Z,10.00
2023-03-17T20:03:48.593Z,9.96
2023-03-17T20:06:14.827Z,9.92
2023-03-17T20:08:41.224Z,9.76
2023-03-17T20:11:07.532Z,9.72
2023-03-17T20:13:33.945Z,9.74
2023-03-17T20:16:00.200Z,9.66
2023-03-17T20:18:26.440Z,9.68
2023-03-17T20:20:52.791Z,9.59
2023-03-17T20:23:19.054Z,9.55
2023-03-17T20:25:45.266Z,9.49
2023-03-17T20:28:11.651Z,9.49
2023-03-17T20:30:38.285Z,9.45
2023-03-17T20:33:04.943Z,9.32
2023-03-17T20:35:31.490Z,9.25
2023-03-17T20:37:57.737Z,9.18
2023-03-17T20:40:24.546Z,9.22
2023-03-17T20:42:50.782Z,9.23
2023-03-17T20:45:16.986Z,9.24
2023-03-17T20:47:43.179Z,9.24
2023-03-17T20:50:09.764Z,9.31
2023-03-17T20:52:36.120Z,9.41
2023-03-17T20:55:02.877Z,9.45
2023-03-17T20:57:29.090Z,9.42
2023-03-17T20:59:55.313Z,9.43
2023-03-17T21:02:21.630Z,9.45
2023-03-17T21:04:47.845Z,9.44
2023-03-17T21:07:17.806Z,9.45
2023-03-17T21:09:44.040Z,9.44
2023-03-17T21:12:13.991Z,9.54
2023-03-17T21:14:40.204Z,9.65
2023-03-17T21:17:06.450Z,9.63
2023-03-17T21:19:32.659Z,9.62
2023-03-17T21:21:58.859Z,9.61
2023-03-17T21:24:28.957Z,9.64
2023-03-17T21:26:55.156Z,9.61
2023-03-17T21:29:21.382Z,9.59
2023-03-17T21:31:47.653Z,9.60
2023-03-17T21:34:13.877Z,9.61
2023-03-17T21:36:40.099Z,9.54
2023-03-17T21:39:06.324Z,9.51
2023-03-17T21:41:33.361Z,9.49
2023-03-17T21:43:59.878Z,9.51
2023-03-17T21:46:26.073Z,9.53
2023-03-17T21:48:52.362Z,9.59
2023-03-17T21:51:18.557Z,9.57
2023-03-17T21:53:44.774Z,9.53
2023-03-17T21:56:12.536Z,9.52
2023-03-17T21:58:38.920Z,9.59
2023-03-17T22:01:05.214Z,9.72
2023-03-17T22:03:31.523Z,9.74
2023-03-17T22:05:58.041Z,9.67
2023-03-17T22:08:24.699Z,9.67
2023-03-17T22:10:51.122Z,9.66
2023-03-17T22:13:17.393Z,9.59
2023-03-17T22:15:43.600Z,9.49
2023-03-17T22:18:09.808Z,9.44
2023-03-17T22:20:36.032Z,9.44
2023-03-17T22:23:02.246Z,9.41
2023-03-17T22:25:28.475Z,9.38
2023-03-17T22:27:54.685Z,9.40
2023-03-17T22:30:20.911Z,9.51
2023-03-17T22:32:47.268Z,9.40
2023-03-17T22:35:13.560Z,9.48
2023-03-17T22:37:39.796Z,9.35
2023-03-17T22:40:06.352Z,9.28
2023-03-17T22:42:32.755Z,9.26
2023-03-17T22:44:59.060Z,9.27
2023-03-17T22:47:25.261Z,9.39
2023-03-17T22:49:51.514Z,9.28
2023-03-17T22:52:17.720Z,9.27
2023-03-17T22:54:43.940Z,9.27
2023-03-17T22:57:10.140Z,9.19
2023-03-17T22:59:36.353Z,9.13
2023-03-17T23:02:02.565Z,9.13
2023-03-17T23:04:28.775Z,9.13
2023-03-17T23:06:54.977Z,9.07
2023-03-17T23:09:21.197Z,9.01
2023-03-17T23:11:47.428Z,8.97
2023-03-17T23:14:13.664Z,8.91
2023-03-17T23:16:39.892Z,8.85
2023-03-17T23:19:06.102Z,8.86
2023-03-17T23:21:33.080Z,8.90
2023-03-17T23:23:59.493Z,8.90
2023-03-17T23:26:25.730Z,8.90
2023-03-17T23:28:51.944Z,8.93
2023-03-17T23:31:18.366Z,9.03
2023-03-17T23:33:45.426Z,9.08
2023-03-17T23:36:11.639Z,9.21
2023-03-17T23:38:37.842Z,9.26
2023-03-17T23:41:04.097Z,9.18
2023-03-17T23:43:30.294Z,9.13
2023-03-17T23:45:56.532Z,9.11
2023-03-17T23:48:22.746Z,9.05
2023-03-17T23:50:50.559Z,9.02
2023-03-17T23:53:16.782Z,9.00
2023-03-17T23:55:43.242Z,9.09
2023-03-17T23:58:09.455Z,9.03
